Time;durP1;ratioP1;P1;durP2;ratioP2;P2;SDS_P1;SDS_P2;PMS_P1;PMS_P2;Temp;Humidity;BMP_temperature;BMP_pressure;BME280_temperature;BME280_humidity;BME280_pressure;Samples;Min_cycle;Max_cycle;Signal;HPM_P1;HPM_P2
2022/03/08 00:01:59;;;;;;;6.88;5.28;;;;;;;2.45;42.62;100166.53;4930700;28;20039;-77
2022/03/08 00:04:32;;;;;;;7.97;5.57;;;;;;;2.45;42.06;100170.88;4910868;29;20066;-78
2022/03/08 00:07:03;;;;;;;6.32;5.40;;;;;;;2.43;42.35;100160.47;4909745;29;20036;-78
2022/03/08 00:09:29;;;;;;;5.80;4.97;;;;;;;2.43;42.34;100168.28;4927638;29;20165;-77
2022/03/08 00:11:54;;;;;;;8.35;4.70;;;;;;;2.44;42.13;100163.97;4939626;29;20103;-77
2022/03/08 00:14:22;;;;;;;7.75;4.97;;;;;;;2.43;42.55;100167.41;4934893;29;20059;-77
2022/03/08 00:16:48;;;;;;;8.35;5.40;;;;;;;2.39;42.30;100160.50;4914412;29;20043;-78
2022/03/08 00:19:18;;;;;;;7.65;5.13;;;;;;;2.44;42.45;100166.56;4935567;29;20036;-78
2022/03/08 00:21:44;;;;;;;12.18;5.20;;;;;;;2.42;42.59;100165.72;4936203;29;20035;-78
2022/03/08 00:24:10;;;;;;;7.97;5.97;;;;;;;2.42;42.38;100170.91;4939996;29;20491;-79
2022/03/08 00:29:22;;;;;;;10.88;5.72;;;;;;;2.39;42.11;100168.31;4934452;29;20130;-76
2022/03/08 00:31:50;;;;;;;11.00;5.78;;;;;;;2.40;42.17;100177.88;4941459;29;20036;-76
2022/03/08 00:34:16;;;;;;;7.35;5.63;;;;;;;2.36;42.60;100166.59;4924864;29;20102;-76
2022/03/08 00:36:47;;;;;;;12.25;5.68;;;;;;;2.40;42.09;100183.94;4938407;29;20031;-78
2022/03/08 00:39:18;;;;;;;8.38;6.10;;;;;;;2.38;42.77;100174.41;4927624;29;20134;-78
2022/03/08 00:41:47;;;;;;;9.95;5.50;;;;;;;2.38;42.22;100171.81;4916863;29;20054;-77
2022/03/08 00:44:15;;;;;;;11.68;5.95;;;;;;;2.38;42.56;100177.00;4938406;29;20047;-77
2022/03/08 00:46:50;;;;;;;8.23;5.55;;;;;;;2.34;42.71;100177.06;4925837;28;20040;-78
2022/03/08 00:49:16;;;;;;;9.40;5.88;;;;;;;2.27;42.62;100162.38;4912740;29;20119;-79
2022/03/08 00:51:44;;;;;;;8.75;6.18;;;;;;;2.29;42.28;100162.34;4927099;29;20055;-78
2022/03/08 00:54:10;;;;;;;11.95;6.35;;;;;;;2.28;42.84;100164.09;4923190;29;20051;-77
2022/03/08 00:56:40;;;;;;;11.45;6.25;;;;;;;2.28;42.65;100164.09;4946321;29;20043;-77
2022/03/08 00:59:06;;;;;;;7.35;5.68;;;;;;;2.29;42.81;100149.34;4928041;29;20043;-79
2022/03/08 01:01:31;;;;;;;8.82;5.55;;;;;;;2.29;42.58;100149.34;4927955;29;20043;-78
2022/03/08 01:04:11;;;;;;;8.18;5.63;;;;;;;2.27;42.51;100158.91;4952212;28;20037;-78
2022/03/08 01:06:40;;;;;;;7.72;5.47;;;;;;;2.26;42.94;100165.84;4905102;28;20040;-76
2022/03/08 01:09:26;;;;;;;7.82;5.75;;;;;;;2.22;42.60;100153.75;4927182;29;20368;-77
2022/03/08 01:11:52;;;;;;;10.32;6.13;;;;;;;2.22;42.98;100152.91;4904522;28;20063;-78
2022/03/08 01:14:26;;;;;;;11.20;6.82;;;;;;;2.18;43.28;100143.38;4935760;28;20038;-78
2022/03/08 01:17:02;;;;;;;9.32;6.10;;;;;;;2.17;42.99;100147.72;4925051;28;20028;-78
2022/03/08 01:19:27;;;;;;;10.20;6.20;;;;;;;2.17;43.23;100149.44;4919113;29;20127;-77
2022/03/08 01:21:53;;;;;;;8.52;6.90;;;;;;;2.14;43.05;100147.72;4917774;29;20070;-79
2022/03/08 01:24:21;;;;;;;8.82;5.85;;;;;;;2.15;43.25;100150.34;4931042;28;20039;-78
2022/03/08 01:26:47;;;;;;;10.10;6.90;;;;;;;2.18;43.23;100145.97;4957492;28;20039;-78
2022/03/08 01:29:15;;;;;;;7.38;5.65;;;;;;;2.14;43.46;100145.13;4956057;28;20035;-78
2022/03/08 01:31:40;;;;;;;9.60;6.72;;;;;;;2.11;43.51;100139.97;4957360;28;20101;-78
2022/03/08 01:34:06;;;;;;;9.48;5.95;;;;;;;2.12;43.49;100139.13;4939733;28;20091;-77
2022/03/08 01:36:31;;;;;;;10.40;7.28;;;;;;;2.13;43.63;100139.06;4955175;28;20187;-77
2022/03/08 01:38:57;;;;;;;7.35;5.38;;;;;;;2.10;42.98;100125.25;4955669;28;20035;-79
2022/03/08 01:41:23;;;;;;;9.27;6.10;;;;;;;2.10;43.59;100127.84;4957126;28;20039;-78
2022/03/08 01:43:48;;;;;;;7.85;5.05;;;;;;;2.11;43.15;100130.41;4956169;28;20126;-78
2022/03/08 01:46:15;;;;;;;8.77;6.85;;;;;;;2.14;43.06;100124.31;4936919;28;20391;-78
2022/03/08 01:48:40;;;;;;;8.63;6.45;;;;;;;2.14;43.08;100116.53;4936095;28;20086;-78
2022/03/08 01:51:06;;;;;;;8.25;6.30;;;;;;;2.11;42.82;100114.81;4952815;28;20043;-78
2022/03/08 01:53:33;;;;;;;7.55;5.47;;;;;;;2.14;43.12;100116.53;4953974;28;20036;-77
2022/03/08 01:55:58;;;;;;;10.50;6.65;;;;;;;2.12;42.96;100116.56;4956813;28;20047;-79
2022/03/08 01:58:24;;;;;;;8.95;6.43;;;;;;;2.11;43.06;100113.97;4956131;28;20565;-76
2022/03/08 02:00:49;;;;;;;8.25;5.63;;;;;;;2.08;42.84;100114.00;4950004;28;20031;-77
2022/03/08 02:03:15;;;;;;;12.88;6.00;;;;;;;2.09;42.83;100113.09;4953826;28;20039;-77
2022/03/08 02:05:40;;;;;;;8.70;5.63;;;;;;;2.09;43.04;100106.19;4955143;28;20442;-78
2022/03/08 02:08:06;;;;;;;12.90;6.97;;;;;;;2.08;42.99;100101.00;4938270;29;20471;-77
2022/03/08 02:10:32;;;;;;;10.55;5.82;;;;;;;2.08;43.16;100107.06;4934996;28;20656;-78
2022/03/08 02:12:57;;;;;;;10.40;5.25;;;;;;;2.08;42.66;100099.25;4953138;28;20034;-78
2022/03/08 02:15:27;;;;;;;9.23;6.15;;;;;;;2.09;43.11;100088.00;4953535;28;20058;-78
2022/03/08 02:17:56;;;;;;;7.78;5.18;;;;;;;2.05;42.85;100093.22;4952670;28;20038;-77
2022/03/08 02:20:22;;;;;;;8.98;6.28;;;;;;;2.04;42.82;100087.16;4952255;28;20047;-77
2022/03/08 02:22:49;;;;;;;8.60;6.00;;;;;;;2.03;42.84;100068.97;4951934;28;20043;-77
2022/03/08 02:25:15;;;;;;;9.60;5.75;;;;;;;2.01;43.13;100081.13;4937714;28;20062;-79
2022/03/08 02:27:43;;;;;;;7.10;5.15;;;;;;;2.02;42.61;100075.94;4954801;28;20046;-80
2022/03/08 02:30:14;;;;;;;9.35;5.53;;;;;;;2.00;43.00;100062.06;4953411;28;20046;-78
2022/03/08 02:32:40;;;;;;;9.48;6.63;;;;;;;2.02;42.75;100067.25;4938052;29;20031;-77
2022/03/08 02:35:14;;;;;;;9.13;6.03;;;;;;;2.01;43.08;100065.53;4954018;28;20499;-78
2022/03/08 02:37:41;;;;;;;9.82;5.82;;;;;;;2.00;43.44;100066.41;4954347;28;20046;-77
2022/03/08 02:40:09;;;;;;;11.98;6.50;;;;;;;1.99;43.15;100067.28;4953777;28;20062;-79
2022/03/08 02:42:35;;;;;;;6.13;4.57;;;;;;;1.96;42.78;100064.72;4934773;28;20070;-77
2022/03/08 02:45:01;;;;;;;7.60;4.80;;;;;;;1.99;43.30;100067.28;4935918;28;20031;-77
2022/03/08 02:47:26;;;;;;;8.95;6.00;;;;;;;1.98;42.97;100062.97;4953311;28;20115;-77
2022/03/08 02:49:51;;;;;;;10.43;5.65;;;;;;;1.98;43.15;100060.38;4953002;28;20499;-76
2022/03/08 02:52:17;;;;;;;9.27;5.97;;;;;;;1.98;43.06;100056.03;4952710;28;20140;-77
2022/03/08 02:54:42;;;;;;;11.23;6.05;;;;;;;1.96;43.02;100051.72;4952593;28;20063;-79
2022/03/08 02:57:07;;;;;;;11.18;5.28;;;;;;;1.94;43.03;100054.31;4935404;29;20035;-78
2022/03/08 02:59:33;;;;;;;11.25;6.75;;;;;;;1.94;43.20;100059.50;4934752;28;20032;-77
2022/03/08 03:01:58;;;;;;;10.27;5.85;;;;;;;1.93;43.03;100065.59;4952176;28;20028;-77
2022/03/08 03:04:24;;;;;;;8.85;5.72;;;;;;;1.96;42.77;100065.56;4936232;28;20039;-80
2022/03/08 03:06:49;;;;;;;8.00;5.00;;;;;;;1.98;42.99;100060.38;4955395;28;20093;-78
2022/03/08 03:09:14;;;;;;;8.15;5.50;;;;;;;1.99;42.97;100065.53;4936287;28;20039;-79
2022/03/08 03:11:40;;;;;;;5.63;4.82;;;;;;;1.99;43.17;100056.88;4934559;29;20059;-77
2022/03/08 03:14:06;;;;;;;8.50;4.93;;;;;;;2.01;42.48;100060.31;4934346;28;20090;-78
2022/03/08 03:16:31;;;;;;;7.07;5.28;;;;;;;2.02;42.64;100054.22;4951763;28;20071;-79
2022/03/08 03:18:56;;;;;;;6.70;5.47;;;;;;;2.04;43.16;100045.53;4952202;28;20078;-79
2022/03/08 03:21:22;;;;;;;8.00;5.72;;;;;;;2.04;43.44;100040.34;4951768;28;20035;-79
2022/03/08 03:23:48;;;;;;;7.32;5.20;;;;;;;2.01;43.18;100026.53;4951687;28;20039;-76
2022/03/08 03:26:14;;;;;;;6.95;4.93;;;;;;;1.98;43.40;100018.75;4951684;28;20114;-77
2022/03/08 03:28:39;;;;;;;8.50;4.75;;;;;;;1.96;43.07;100010.97;4952312;28;20162;-80
2022/03/08 03:31:04;;;;;;;5.55;4.68;;;;;;;1.91;43.26;100013.63;4951150;28;20402;-78
2022/03/08 03:33:30;;;;;;;8.10;5.28;;;;;;;1.94;43.36;100002.31;4951845;28;20098;-79
2022/03/08 03:35:55;;;;;;;11.48;5.15;;;;;;;1.96;43.25;99999.72;4934261;28;20042;-77
2022/03/08 03:38:20;;;;;;;6.75;4.78;;;;;;;1.95;42.89;99992.81;4951409;28;20039;-76
2022/03/08 03:40:46;;;;;;;8.85;5.03;;;;;;;1.99;42.97;99984.94;4951591;28;20042;-78
2022/03/08 03:43:11;;;;;;;7.72;5.43;;;;;;;1.99;42.90;99987.53;4934421;28;20046;-76
2022/03/08 03:45:37;;;;;;;6.95;5.18;;;;;;;1.99;42.65;99978.88;4952579;28;20035;-78
2022/03/08 03:48:03;;;;;;;7.63;5.57;;;;;;;1.99;42.86;99978.88;4955871;28;20027;-77
2022/03/08 03:50:29;;;;;;;7.85;5.55;;;;;;;1.98;43.01;99974.56;4957369;28;20027;-78
2022/03/08 03:52:54;;;;;;;7.75;5.43;;;;;;;1.97;42.81;99973.72;4961305;28;20042;-77
2022/03/08 03:55:20;;;;;;;7.93;5.40;;;;;;;2.00;42.74;99962.41;4951598;28;20110;-77
2022/03/08 03:57:45;;;;;;;9.25;5.18;;;;;;;2.03;42.34;99959.78;4970388;28;20031;-77
2022/03/08 04:00:13;;;;;;;7.88;4.95;;;;;;;2.04;42.38;99967.53;4949784;29;20035;-77
2022/03/08 04:02:39;;;;;;;6.90;4.40;;;;;;;2.05;42.54;99958.88;4960180;28;20065;-77
2022/03/08 04:05:05;;;;;;;5.68;4.20;;;;;;;2.08;42.05;99964.03;4957848;28;20118;-77
2022/03/08 04:07:31;;;;;;;7.97;4.68;;;;;;;2.09;41.85;99964.88;4957864;28;20035;-77
2022/03/08 04:09:56;;;;;;;5.88;4.25;;;;;;;2.11;41.31;99957.94;4959541;28;20046;-77
2022/03/08 04:12:21;;;;;;;6.80;4.65;;;;;;;2.11;41.78;99963.13;4927963;28;20069;-79
2022/03/08 04:14:47;;;;;;;7.07;3.97;;;;;;;2.11;41.37;99963.13;4943700;28;20047;-77
2022/03/08 04:17:12;;;;;;;6.20;3.80;;;;;;;2.11;41.54;99965.72;4972209;28;20035;-78
2022/03/08 04:19:37;;;;;;;6.57;4.65;;;;;;;2.11;41.33;99963.97;4947431;29;20086;-77
2022/03/08 04:22:03;;;;;;;6.35;4.68;;;;;;;2.12;41.50;99959.66;4967160;28;20046;-79
2022/03/08 04:24:28;;;;;;;6.43;4.40;;;;;;;2.12;41.64;99965.72;4951581;28;20119;-77
2022/03/08 04:26:54;;;;;;;7.70;4.28;;;;;;;2.14;41.24;99968.28;4973467;28;20098;-78
2022/03/08 04:29:19;;;;;;;6.50;4.28;;;;;;;2.12;41.14;99967.47;4956136;28;20032;-78
2022/03/08 04:31:45;;;;;;;8.02;4.20;;;;;;;2.13;40.84;99977.84;4962999;28;20435;-78
2022/03/08 04:34:10;;;;;;;4.85;3.88;;;;;;;2.17;40.82;99975.19;4959297;28;20585;-78
2022/03/08 04:36:35;;;;;;;6.30;4.03;;;;;;;2.17;41.09;99983.00;4942447;28;20091;-79
2022/03/08 04:39:01;;;;;;;8.50;4.45;;;;;;;2.17;40.98;99986.47;4958332;28;20039;-78
2022/03/08 04:41:26;;;;;;;7.47;3.80;;;;;;;2.17;41.33;99988.19;4922468;28;20043;-79
2022/03/08 04:43:52;;;;;;;6.07;4.18;;;;;;;2.13;41.31;99967.44;4938137;28;20039;-78
2022/03/08 04:46:17;;;;;;;6.25;3.83;;;;;;;2.11;40.99;99976.13;4954737;28;20039;-78
2022/03/08 04:48:43;;;;;;;7.93;4.60;;;;;;;2.12;40.67;99964.88;4954343;28;20035;-76
2022/03/08 04:51:08;;;;;;;7.22;4.38;;;;;;;2.17;40.51;99973.47;4954706;28;20043;-77
2022/03/08 04:53:34;;;;;;;7.53;3.85;;;;;;;2.17;40.37;99968.28;4954609;28;20035;-78
2022/03/08 04:55:59;;;;;;;5.53;4.00;;;;;;;2.18;40.92;99956.97;4953952;28;20054;-78
2022/03/08 04:58:24;;;;;;;5.95;4.20;;;;;;;2.18;40.87;99959.56;4953947;28;20062;-77
2022/03/08 05:00:51;;;;;;;5.57;3.95;;;;;;;2.20;40.68;99978.63;4936634;28;20082;-77
2022/03/08 05:03:16;;;;;;;10.15;5.72;;;;;;;2.17;40.52;99978.69;4951523;28;20071;-77
2022/03/08 05:05:41;;;;;;;5.95;4.55;;;;;;;2.16;40.40;99971.72;4937252;29;20114;-77
2022/03/08 05:08:07;;;;;;;5.40;3.63;;;;;;;2.16;40.56;99979.53;4954744;28;20384;-79
2022/03/08 05:10:33;;;;;;;8.50;4.18;;;;;;;2.17;41.03;99981.28;4936515;28;20036;-78
2022/03/08 05:13:00;;;;;;;5.78;3.63;;;;;;;2.17;40.68;99989.09;4936729;28;20042;-78
2022/03/08 05:15:25;;;;;;;10.98;4.93;;;;;;;2.16;40.37;99984.75;4937346;28;20043;-78
2022/03/08 05:17:51;;;;;;;4.65;4.07;;;;;;;2.11;40.73;99982.19;4954707;28;20054;-78
2022/03/08 05:20:16;;;;;;;8.73;4.50;;;;;;;2.12;40.50;99989.13;4953347;28;20051;-78
2022/03/08 05:22:41;;;;;;;4.38;3.58;;;;;;;2.14;40.75;99982.19;4918904;29;20037;-77
2022/03/08 05:25:08;;;;;;;6.53;4.05;;;;;;;2.12;40.48;99977.88;4942898;29;20028;-75
2022/03/08 05:27:34;;;;;;;5.32;3.80;;;;;;;2.12;40.59;99970.94;4919111;29;20043;-78
2022/03/08 05:29:59;;;;;;;5.93;4.07;;;;;;;2.11;40.88;99977.00;4917610;29;20154;-79
2022/03/08 05:32:24;;;;;;;4.97;3.83;;;;;;;2.12;40.58;99970.06;4934137;29;20039;-78
2022/03/08 05:34:50;;;;;;;6.95;4.20;;;;;;;2.08;41.06;99964.03;4934743;29;20040;-79
2022/03/08 05:37:15;;;;;;;6.47;4.03;;;;;;;2.09;40.46;99962.28;4918920;29;20047;-78
2022/03/08 05:39:40;;;;;;;5.00;4.20;;;;;;;2.10;40.73;99966.63;4935298;29;20402;-79
2022/03/08 05:42:06;;;;;;;7.18;4.10;;;;;;;2.06;40.38;99959.72;4915322;29;20112;-79
2022/03/08 05:44:34;;;;;;;4.78;3.63;;;;;;;2.08;40.49;99977.03;4917554;29;20055;-77
2022/03/08 05:46:59;;;;;;;8.68;4.70;;;;;;;2.05;40.73;99971.03;4931547;29;20054;-78
2022/03/08 05:49:25;;;;;;;6.32;4.22;;;;;;;2.04;40.69;99974.47;4913998;29;20044;-78
2022/03/08 05:51:50;;;;;;;6.20;3.92;;;;;;;2.04;40.55;99971.88;4913474;29;20112;-77
2022/03/08 05:54:16;;;;;;;6.95;4.38;;;;;;;2.06;40.61;99977.94;4914939;29;20527;-76
2022/03/08 05:56:42;;;;;;;9.32;4.60;;;;;;;2.06;40.45;99970.97;4922001;29;20032;-78
2022/03/08 05:59:08;;;;;;;10.30;4.63;;;;;;;2.04;40.61;99977.94;4929256;29;20032;-78
2022/03/08 06:01:33;;;;;;;6.40;4.20;;;;;;;2.03;40.71;99972.78;4924798;29;20039;-77
2022/03/08 06:03:59;;;;;;;8.18;5.82;;;;;;;2.02;40.30;99968.44;4940451;29;20039;-78
2022/03/08 06:06:24;;;;;;;5.85;4.43;;;;;;;2.03;41.07;99975.38;4903271;28;20039;-78
2022/03/08 06:08:49;;;;;;;7.00;4.30;;;;;;;2.03;40.53;99975.38;4954373;28;20039;-78
2022/03/08 06:11:15;;;;;;;7.75;5.47;;;;;;;2.01;40.63;99970.19;4938048;28;20090;-78
2022/03/08 06:13:41;;;;;;;8.65;4.90;;;;;;;2.03;40.72;99971.03;4954584;28;20031;-78
2022/03/08 06:16:06;;;;;;;8.85;3.92;;;;;;;2.01;40.92;99971.91;4920385;29;20035;-79
2022/03/08 06:18:32;;;;;;;5.53;4.10;;;;;;;1.98;40.83;99974.56;4954603;28;20051;-78
2022/03/08 06:20:57;;;;;;;7.47;4.15;;;;;;;1.99;40.49;99973.66;4952878;28;20043;-79
2022/03/08 06:23:22;;;;;;;4.85;3.92;;;;;;;2.01;40.90;99979.72;4952938;28;20043;-77
2022/03/08 06:25:48;;;;;;;9.02;5.00;;;;;;;2.00;40.75;99975.41;4939751;28;20046;-78
2022/03/08 06:28:13;;;;;;;8.60;5.53;;;;;;;2.02;40.77;99974.53;4938522;28;20059;-78
2022/03/08 06:30:39;;;;;;;8.27;4.53;;;;;;;2.04;40.58;99964.94;4953559;28;20085;-78
2022/03/08 06:33:04;;;;;;;8.90;4.68;;;;;;;2.05;40.79;99965.81;4926244;28;20027;-78
2022/03/08 06:35:30;;;;;;;5.47;4.10;;;;;;;2.08;40.93;99965.78;4952778;28;20100;-77
2022/03/08 06:37:55;;;;;;;7.90;5.25;;;;;;;2.11;40.65;99965.72;4954023;28;20038;-78
2022/03/08 06:40:21;;;;;;;7.45;4.45;;;;;;;2.11;40.58;99974.38;4952827;28;20039;-78
2022/03/08 06:42:46;;;;;;;8.77;4.50;;;;;;;2.13;40.84;99987.38;4937027;28;20031;-79
2022/03/08 06:45:12;;;;;;;10.30;4.35;;;;;;;2.18;40.96;99969.97;4953046;28;20124;-77
2022/03/08 06:47:40;;;;;;;6.55;4.35;;;;;;;2.26;40.46;99983.75;4953767;28;20039;-77
2022/03/08 06:50:07;;;;;;;6.85;4.45;;;;;;;2.32;40.50;99983.69;4957189;28;20838;-79
2022/03/08 06:52:33;;;;;;;6.15;4.85;;;;;;;2.38;40.63;99976.69;4938962;28;20047;-78
2022/03/08 06:54:58;;;;;;;6.65;4.43;;;;;;;2.45;40.03;99973.97;4948809;28;20035;-78
2022/03/08 06:57:24;;;;;;;5.97;4.07;;;;;;;2.79;39.58;99974.38;4978697;28;20069;-78
2022/03/08 06:59:50;;;;;;;9.85;4.55;;;;;;;3.14;39.18;99977.31;4979539;28;20039;-79
2022/03/08 07:02:16;;;;;;;7.15;4.57;;;;;;;3.57;38.38;99990.50;4978066;28;20100;-76
2022/03/08 07:04:41;;;;;;;5.53;4.63;;;;;;;3.80;37.94;99982.28;4978171;28;20043;-77
2022/03/08 07:07:06;;;;;;;8.27;4.45;;;;;;;3.89;37.86;99986.47;4976173;28;20030;-77
2022/03/08 07:09:32;;;;;;;6.82;4.88;;;;;;;4.04;37.65;99991.38;4975450;28;20423;-78
2022/03/08 07:11:57;;;;;;;6.15;5.13;;;;;;;4.01;37.59;99995.78;4956907;28;20034;-78
2022/03/08 07:14:22;;;;;;;6.45;4.40;;;;;;;3.87;37.84;99988.25;4974925;28;20051;-78
2022/03/08 07:16:48;;;;;;;7.45;5.57;;;;;;;3.71;38.25;99994.63;4968999;28;20114;-78
2022/03/08 07:19:15;;;;;;;7.05;4.95;;;;;;;3.60;38.86;100000.03;4956886;28;20073;-79
2022/03/08 07:21:41;;;;;;;14.65;5.07;;;;;;;3.49;38.83;99996.72;4959597;28;20039;-78
2022/03/08 07:24:07;;;;;;;6.50;5.25;;;;;;;3.47;39.10;100001.09;4956372;28;20411;-77
2022/03/08 07:26:53;;;;;;;9.48;4.82;;;;;;;3.47;39.01;100002.00;4944624;28;20545;-79
2022/03/08 07:29:43;;;;;;;7.07;5.45;;;;;;;3.43;39.30;100000.31;4911319;28;20035;-77
2022/03/08 07:32:29;;;;;;;9.30;5.97;;;;;;;3.41;39.36;100000.31;4924433;28;20115;-79
2022/03/08 07:35:20;;;;;;;9.45;6.28;;;;;;;3.46;39.61;100005.47;4924198;28;20047;-78
2022/03/08 07:37:46;;;;;;;7.35;4.97;;;;;;;3.52;39.58;100000.16;4940239;28;20027;-79
2022/03/08 07:40:11;;;;;;;10.60;5.80;;;;;;;3.52;39.77;99997.56;4902347;29;20047;-77
2022/03/08 07:42:39;;;;;;;10.68;5.47;;;;;;;3.54;39.47;99994.91;4932798;28;20031;-79
2022/03/08 07:45:05;;;;;;;7.07;5.20;;;;;;;3.58;39.67;100004.41;4939857;28;20032;-78
2022/03/08 07:47:37;;;;;;;7.85;5.05;;;;;;;3.62;39.51;99999.13;4914184;28;20119;-77
2022/03/08 07:50:03;;;;;;;8.73;5.10;;;;;;;3.65;39.96;99999.06;4930426;28;20587;-77
2022/03/08 07:52:30;;;;;;;8.80;4.85;;;;;;;3.71;39.66;99992.84;4921773;28;20031;-79
2022/03/08 07:54:55;;;;;;;10.65;5.03;;;;;;;3.73;39.64;99988.47;4908368;28;20679;-76
2022/03/08 07:57:39;;;;;;;11.23;7.25;;;;;;;3.78;39.57;100023.16;4930510;28;20070;-77
2022/03/08 08:00:07;;;;;;;5.88;4.13;;;;;;;3.82;39.31;99992.69;4918848;28;20043;-77
2022/03/08 08:02:33;;;;;;;7.25;5.85;;;;;;;3.85;39.68;100000.44;4960043;28;20271;-77
2022/03/08 08:04:59;;;;;;;7.97;5.00;;;;;;;3.96;39.78;100000.22;4930923;28;20028;-78
2022/03/08 08:07:24;;;;;;;8.07;5.35;;;;;;;4.06;39.55;100014.81;4935360;28;20043;-78
2022/03/08 08:09:52;;;;;;;6.63;4.70;;;;;;;4.17;39.19;100012.03;4933643;28;20032;-79
2022/03/08 08:12:51;;;;;;;;;;;;;;;;;;;;;
2022/03/08 08:15:23;;;;;;;5.70;4.65;;;;;;;4.29;39.09;100017.00;4895073;29;20412;-76
2022/03/08 08:17:51;;;;;;;7.63;5.05;;;;;;;4.39;38.60;100008.09;4891214;29;20115;-78
2022/03/08 08:20:45;;;;;;;7.50;4.70;;;;;;;4.52;38.58;100025.22;4876151;29;20040;-79
2022/03/08 08:23:10;;;;;;;9.00;5.00;;;;;;;4.52;37.99;100009.53;4903303;28;20031;-77
2022/03/08 08:25:48;;;;;;;9.20;5.82;;;;;;;4.61;38.01;100023.31;4904451;29;20193;-80
2022/03/08 08:28:13;;;;;;;6.50;4.90;;;;;;;4.58;37.80;100008.59;4903392;29;20028;-77
2022/03/08 08:30:42;;;;;;;8.27;4.80;;;;;;;4.61;37.83;100018.09;4935373;29;20058;-79
2022/03/08 08:33:16;;;;;;;8.88;5.40;;;;;;;4.76;37.84;100006.47;4921058;29;20055;-78
2022/03/08 08:35:58;;;;;;;6.32;5.22;;;;;;;4.92;37.96;100008.72;4930959;29;20047;-77
2022/03/08 08:38:30;;;;;;;8.52;4.97;;;;;;;5.07;37.89;100004.00;4920940;29;20043;-78
2022/03/08 08:40:56;;;;;;;8.68;5.28;;;;;;;5.16;36.95;100022.94;4922227;29;20044;-76
2022/03/08 08:43:25;;;;;;;8.77;5.35;;;;;;;5.19;37.42;100003.72;4948383;28;20060;-77
2022/03/08 08:45:52;;;;;;;14.90;5.20;;;;;;;5.28;37.07;100011.34;4939184;29;20028;-77
2022/03/08 08:48:27;;;;;;;10.35;5.03;;;;;;;5.40;37.12;99999.72;4903502;29;20123;-77
2022/03/08 08:50:56;;;;;;;8.05;5.32;;;;;;;5.55;36.15;100007.19;4910116;28;20039;-79
2022/03/08 08:53:22;;;;;;;8.40;5.10;;;;;;;5.91;36.06;100007.16;4920906;29;20051;-78
2022/03/08 08:55:48;;;;;;;6.55;4.93;;;;;;;6.41;34.88;99998.81;4924377;29;20131;-76
2022/03/08 08:58:14;;;;;;;8.75;5.53;;;;;;;7.04;33.64;99997.81;4933470;29;20067;-78
2022/03/08 09:00:39;;;;;;;7.07;4.63;;;;;;;7.76;32.24;99997.22;4936061;29;20067;-77
2022/03/08 09:03:09;;;;;;;8.48;5.15;;;;;;;8.69;31.11;99989.50;4918637;29;20091;-77
2022/03/08 09:05:35;;;;;;;6.68;5.47;;;;;;;9.44;29.97;99979.47;4936043;29;20409;-78
2022/03/08 09:08:00;;;;;;;7.55;5.28;;;;;;;10.29;28.49;99979.38;4920940;29;20024;-77
2022/03/08 09:10:26;;;;;;;6.13;4.75;;;;;;;10.77;27.56;100002.69;4936698;29;20036;-77
2022/03/08 09:12:53;;;;;;;6.05;5.03;;;;;;;10.98;27.04;99980.59;4937517;29;20118;-76
2022/03/08 09:15:19;;;;;;;6.65;5.13;;;;;;;11.65;26.62;99984.34;4938207;29;20566;-77
2022/03/08 09:17:45;;;;;;;7.82;4.95;;;;;;;12.06;25.72;99986.69;4918301;29;20048;-76
2022/03/08 09:20:11;;;;;;;7.88;5.15;;;;;;;12.52;24.89;99973.63;4951803;28;20051;-79
2022/03/08 09:22:37;;;;;;;5.82;4.40;;;;;;;12.59;25.03;99977.66;4957245;28;20039;-76
2022/03/08 09:25:03;;;;;;;6.55;5.20;;;;;;;13.21;24.12;99975.09;4955912;28;20452;-77
2022/03/08 09:27:30;;;;;;;5.13;4.45;;;;;;;13.22;23.83;99983.91;4955416;28;20062;-77
2022/03/08 09:29:55;;;;;;;6.00;4.93;;;;;;;12.99;23.85;99979.88;4921662;28;20027;-78
2022/03/08 09:32:23;;;;;;;5.60;4.00;;;;;;;13.06;24.12;99982.09;4937921;28;20050;-77
2022/03/08 09:34:49;;;;;;;5.85;5.03;;;;;;;13.34;23.49;99979.72;4955526;28;20181;-77
2022/03/08 09:37:15;;;;;;;5.20;4.70;;;;;;;13.66;23.04;99989.31;4954390;28;20115;-76
2022/03/08 09:39:40;;;;;;;6.30;4.60;;;;;;;13.76;23.18;99984.31;4955086;28;20031;-77
2022/03/08 09:42:06;;;;;;;10.13;6.45;;;;;;;13.93;22.60;99973.56;4953922;28;20122;-77
2022/03/08 09:44:32;;;;;;;5.22;4.05;;;;;;;14.79;22.41;99973.59;4953267;28;20090;-77
2022/03/08 09:46:58;;;;;;;11.75;5.35;;;;;;;15.19;22.07;99980.78;4955668;28;20050;-77
2022/03/08 09:49:23;;;;;;;5.38;4.03;;;;;;;15.01;21.09;99981.03;4938015;28;20043;-77
2022/03/08 09:51:52;;;;;;;8.77;5.50;;;;;;;14.98;21.15;99978.53;4956075;28;20098;-76
2022/03/08 09:54:18;;;;;;;5.78;4.05;;;;;;;15.06;21.48;99978.03;4936623;28;20054;-76
2022/03/08 09:56:43;;;;;;;6.15;4.20;;;;;;;15.11;21.34;99960.03;4937246;29;20110;-78
2022/03/08 09:59:08;;;;;;;5.10;3.85;;;;;;;15.71;21.04;99966.72;4937324;29;20450;-78
2022/03/08 10:01:39;;;;;;;9.32;4.80;;;;;;;15.61;20.82;99961.13;4936777;28;20043;-77
2022/03/08 10:04:06;;;;;;;5.63;4.28;;;;;;;15.77;20.33;99960.13;4927429;28;20037;-79
2022/03/08 10:09:58;;;;;;;4.43;4.03;;;;;;;15.36;20.55;99971.72;4934437;28;20562;-79
2022/03/08 10:12:35;;;;;;;7.97;5.03;;;;;;;15.21;20.51;99953.16;4940025;28;20043;-77
2022/03/08 10:15:18;;;;;;;6.00;3.95;;;;;;;15.52;20.61;99961.75;4938043;28;20032;-78
2022/03/08 10:18:19;;;;;;;5.00;3.88;;;;;;;15.39;20.33;99947.59;4942647;28;20403;-76
2022/03/08 10:20:51;;;;;;;8.77;3.72;;;;;;;15.83;20.18;99943.78;4914558;29;20110;-77
2022/03/08 10:23:44;;;;;;;5.72;4.00;;;;;;;16.16;20.05;99951.22;4918338;29;20567;-79
2022/03/08 10:26:37;;;;;;;5.05;3.75;;;;;;;16.19;19.72;99950.97;4933284;28;20039;-78
2022/03/08 10:29:59;;;;;;;4.30;3.90;;;;;;;16.43;19.37;99952.88;4915139;28;20051;-79
2022/03/08 10:32:41;;;;;;;4.78;4.00;;;;;;;16.21;19.73;99942.91;4844216;29;20462;-79
2022/03/08 10:35:24;;;;;;;4.63;3.88;;;;;;;16.20;19.59;99941.22;4883296;29;20032;-78
2022/03/08 10:37:50;;;;;;;4.70;3.97;;;;;;;16.44;19.21;99941.28;4883442;29;20041;-77
2022/03/08 10:40:45;;;;;;;6.60;3.78;;;;;;;16.57;19.09;99941.28;4880877;29;20543;-77
2022/03/08 10:43:48;;;;;;;6.25;4.05;;;;;;;16.47;19.36;99946.41;4912152;28;20035;-77
2022/03/08 10:46:45;;;;;;;;;;;;;;;;;;;;;
2022/03/08 10:49:20;;;;;;;7.72;4.70;;;;;;;14.93;20.73;99932.88;4939366;28;21643;-77
2022/03/08 10:52:25;;;;;;;8.05;4.30;;;;;;;14.27;21.15;99934.38;4935091;28;20058;-76
2022/03/08 10:54:51;;;;;;;9.00;4.55;;;;;;;13.57;22.35;99917.47;4911017;28;20553;-78
2022/03/08 10:57:49;;;;;;;6.20;4.75;;;;;;;12.83;22.35;99929.63;4939649;28;20055;-78
2022/03/08 11:00:20;;;;;;;9.63;4.40;;;;;;;12.42;24.24;99938.91;4925486;28;20114;-78
2022/03/08 11:02:49;;;;;;;6.00;4.45;;;;;;;12.09;24.14;99933.66;4926600;28;20035;-78
2022/03/08 11:05:16;;;;;;;6.32;4.63;;;;;;;11.68;24.25;99949.00;4896856;29;20043;-78
2022/03/08 11:08:28;;;;;;;7.30;4.93;;;;;;;11.29;25.27;99947.41;4927919;28;20046;-78
2022/03/08 11:10:57;;;;;;;6.93;4.32;;;;;;;10.91;25.11;99929.91;4921682;28;20039;-79
2022/03/08 11:13:32;;;;;;;6.10;4.65;;;;;;;10.68;25.68;99938.91;4924070;28;20496;-78
2022/03/08 11:16:09;;;;;;;6.13;4.85;;;;;;;10.33;26.24;99940.53;4946691;28;20046;-78
2022/03/08 11:18:36;;;;;;;7.63;4.22;;;;;;;10.18;26.61;99928.88;4934619;28;21118;-78
2022/03/08 11:21:20;;;;;;;8.32;5.13;;;;;;;10.14;26.15;99937.88;4952524;28;20046;-78
2022/03/08 11:23:57;;;;;;;6.07;4.93;;;;;;;9.99;26.39;99920.09;4939759;28;20039;-77
2022/03/08 11:26:23;;;;;;;9.52;4.55;;;;;;;10.15;27.15;99926.41;4952814;28;20574;-78
2022/03/08 11:28:49;;;;;;;5.35;4.03;;;;;;;10.10;26.96;99923.13;4952773;28;20043;-77
2022/03/08 11:31:21;;;;;;;8.35;4.82;;;;;;;9.90;27.09;99929.28;4951934;28;20035;-77
2022/03/08 11:34:27;;;;;;;9.07;5.32;;;;;;;9.87;27.11;99926.78;4953027;28;20035;-77
2022/03/08 11:37:03;;;;;;;6.15;4.60;;;;;;;9.75;27.27;99922.06;4942773;28;20419;-78
2022/03/08 11:39:30;;;;;;;6.43;4.22;;;;;;;9.77;27.71;99922.81;4953052;28;20039;-77
2022/03/08 11:42:15;;;;;;;8.15;4.95;;;;;;;9.67;27.29;99917.97;4935096;28;20114;-77
2022/03/08 11:44:41;;;;;;;8.07;4.97;;;;;;;9.52;26.68;99926.50;4954624;28;20102;-79
2022/03/08 11:47:12;;;;;;;6.65;4.82;;;;;;;9.48;27.67;99911.78;4936478;28;20071;-76
2022/03/08 11:49:52;;;;;;;7.78;4.57;;;;;;;9.63;27.56;99919.03;4957564;28;20027;-79
2022/03/08 11:52:19;;;;;;;7.65;4.80;;;;;;;9.72;27.36;99915.16;4937837;28;20047;-77
2022/03/08 11:55:02;;;;;;;8.75;5.28;;;;;;;9.76;27.61;99916.72;4940364;28;20519;-78